createdAt,value
2023-03-24T00:00:11.314Z,19.90
2023-03-24T00:02:42.050Z,19.90
2023-03-24T00:05:13.988Z,19.90
2023-03-24T00:07:41.752Z,19.90
2023-03-24T00:10:18.046Z,19.80
2023-03-24T00:12:46.298Z,19.80
2023-03-24T00:15:17.026Z,19.80
2023-03-24T00:17:45.216Z,19.80
2023-03-24T00:20:15.437Z,19.80
2023-03-24T00:22:49.816Z,19.80
2023-03-24T00:25:23.732Z,19.80
2023-03-24T00:27:51.369Z,19.80
2023-03-24T00:30:19.314Z,19.80
2023-03-24T00:32:46.685Z,19.80
2023-03-24T00:35:16.515Z,19.80
2023-03-24T00:37:44.666Z,19.80
2023-03-24T00:40:16.381Z,19.80
2023-03-24T00:42:45.868Z,19.80
2023-03-24T00:45:16.209Z,19.80
2023-03-24T00:47:44.831Z,19.80
2023-03-24T00:50:15.888Z,19.80
2023-03-24T00:52:44.277Z,19.80
2023-03-24T00:55:15.976Z,19.80
2023-03-24T00:57:50.489Z,19.80
2023-03-24T01:00:24.116Z,19.80
2023-03-24T01:02:55.761Z,19.80
2023-03-24T01:05:28.612Z,19.80
2023-03-24T01:08:04.971Z,19.80
2023-03-24T01:10:42.594Z,19.70
2023-03-24T01:13:10.334Z,19.70
2023-03-24T01:15:38.360Z,19.60
2023-03-24T01:18:05.388Z,19.60
2023-03-24T01:20:33.291Z,19.60
2023-03-24T01:23:01.763Z,19.50
2023-03-24T01:25:30.510Z,19.50
2023-03-24T01:27:57.812Z,19.50
2023-03-24T01:30:27.481Z,19.50
2023-03-24T01:32:54.540Z,19.50
2023-03-24T01:35:22.896Z,19.50
2023-03-24T01:37:49.821Z,19.50
2023-03-24T01:40:29.707Z,19.50
2023-03-24T01:42:57.644Z,19.50
2023-03-24T01:45:41.653Z,19.50
2023-03-24T01:48:15.533Z,19.50
2023-03-24T01:50:46.669Z,19.50
2023-03-24T01:53:13.872Z,19.50
2023-03-24T01:55:43.468Z,19.50
2023-03-24T01:58:10.535Z,19.50
2023-03-24T02:00:38.051Z,19.50
2023-03-24T02:03:09.985Z,19.50
2023-03-24T02:05:38.655Z,19.50
2023-03-24T02:08:17.310Z,19.50
2023-03-24T02:10:44.780Z,19.50
2023-03-24T02:13:11.797Z,19.50
2023-03-24T02:15:56.668Z,19.50
2023-03-24T02:18:47.542Z,19.40
2023-03-24T02:21:32.175Z,19.50
2023-03-24T02:24:27.028Z,19.50
2023-03-24T02:27:20.193Z,19.50
2023-03-24T02:30:16.386Z,19.50
2023-03-24T02:33:24.462Z,19.50
2023-03-24T02:36:28.177Z,19.50
2023-03-24T02:39:14.962Z,19.50
2023-03-24T02:42:19.121Z,19.50
2023-03-24T02:45:21.995Z,19.50
2023-03-24T02:47:59.456Z,19.50
2023-03-24T02:50:51.129Z,19.50
2023-03-24T02:53:57.528Z,19.50
2023-03-24T02:56:43.109Z,19.50
2023-03-24T02:59:17.382Z,19.50
2023-03-24T03:02:10.098Z,19.50
2023-03-24T03:04:46.133Z,19.50
2023-03-24T03:07:16.754Z,19.50
2023-03-24T03:09:57.471Z,19.50
2023-03-24T03:12:27.291Z,19.50
2023-03-24T03:15:12.360Z,19.50
2023-03-24T03:17:48.199Z,19.50
2023-03-24T03:20:20.637Z,19.50
2023-03-24T03:23:00.849Z,19.50
2023-03-24T03:25:33.418Z,19.50
2023-03-24T03:28:03.619Z,19.50
2023-03-24T03:30:33.778Z,19.50
2023-03-24T03:33:18.166Z,19.50
2023-03-24T03:36:02.682Z,19.50
2023-03-24T03:38:53.414Z,19.50
2023-03-24T03:41:20.934Z,19.50
2023-03-24T03:43:49.608Z,19.50
2023-03-24T03:46:18.117Z,19.60
2023-03-24T03:48:46.014Z,19.50
2023-03-24T03:51:14.839Z,19.50
2023-03-24T03:53:58.197Z,19.50
2023-03-24T03:56:27.883Z,19.50
2023-03-24T03:58:54.777Z,19.40
2023-03-24T04:01:25.521Z,19.40
2023-03-24T04:04:26.085Z,19.40
2023-03-24T04:07:24.647Z,19.40
2023-03-24T04:10:13.805Z,19.40
2023-03-24T04:13:05.618Z,19.40
2023-03-24T04:15:39.229Z,19.30
2023-03-24T04:18:23.169Z,19.20
2023-03-24T04:21:28.257Z,19.10
2023-03-24T04:24:27.228Z,19.10
2023-03-24T04:27:21.894Z,18.90
2023-03-24T04:30:25.005Z,18.90
2023-03-24T04:32:58.363Z,18.80
2023-03-24T04:35:31.952Z,18.80
2023-03-24T04:38:09.200Z,18.70
2023-03-24T04:40:41.995Z,18.70
2023-03-24T04:43:13.829Z,18.70
2023-03-24T04:45:41.756Z,18.70
2023-03-24T04:48:11.982Z,18.70
2023-03-24T04:50:42.879Z,18.70
2023-03-24T04:53:10.617Z,18.70
2023-03-24T04:55:58.337Z,18.70
2023-03-24T04:58:25.136Z,18.70
2023-03-24T05:00:52.616Z,18.70
2023-03-24T05:03:19.497Z,18.70
2023-03-24T05:05:49.006Z,18.70
2023-03-24T05:08:20.548Z,18.70
2023-03-24T05:10:47.678Z,18.70
2023-03-24T05:13:15.299Z,18.70
2023-03-24T05:15:42.500Z,18.60
2023-03-24T05:18:09.725Z,18.60
2023-03-24T05:20:36.507Z,18.60
2023-03-24T05:23:03.350Z,18.60
2023-03-24T05:25:30.211Z,18.60
2023-03-24T05:27:57.155Z,18.60
2023-03-24T05:30:24.365Z,18.60
2023-03-24T05:32:51.291Z,18.60
2023-03-24T05:35:18.275Z,18.60
2023-03-24T05:37:45.112Z,18.60
2023-03-24T05:40:12.494Z,18.60
2023-03-24T05:42:39.270Z,18.60
2023-03-24T05:45:06.879Z,18.60
2023-03-24T05:47:33.914Z,18.60
2023-03-24T05:50:00.797Z,18.60
2023-03-24T05:52:28.863Z,18.60
2023-03-24T05:54:55.950Z,18.60
2023-03-24T05:57:22.981Z,18.60
2023-03-24T05:59:49.878Z,18.70
2023-03-24T06:02:16.874Z,18.70
2023-03-24T06:04:46.491Z,18.70
2023-03-24T06:07:14.346Z,18.60
2023-03-24T06:09:46.960Z,18.60
2023-03-24T06:12:14.231Z,18.70
2023-03-24T06:14:40.980Z,18.70
2023-03-24T06:17:08.485Z,18.60
2023-03-24T06:19:38.513Z,18.60
2023-03-24T06:22:06.212Z,18.70
2023-03-24T06:24:34.529Z,18.70
2023-03-24T06:27:03.452Z,18.70
2023-03-24T06:29:31.104Z,18.70
2023-03-24T06:31:57.884Z,18.70
2023-03-24T06:34:25.270Z,18.70
2023-03-24T06:36:52.771Z,18.70
2023-03-24T06:39:19.755Z,18.70
2023-03-24T06:41:46.741Z,18.70
2023-03-24T06:44:13.522Z,18.70
2023-03-24T06:46:40.684Z,18.70
2023-03-24T06:49:08.058Z,18.80
2023-03-24T06:51:34.854Z,18.70
2023-03-24T06:54:01.947Z,18.80
2023-03-24T06:56:30.191Z,18.70
2023-03-24T06:58:57.654Z,18.70
2023-03-24T07:01:25.395Z,18.80
2023-03-24T07:03:53.531Z,18.80
2023-03-24T07:06:22.829Z,18.80
2023-03-24T07:08:50.456Z,18.80
2023-03-24T07:11:17.258Z,18.70
2023-03-24T07:13:44.033Z,18.70
2023-03-24T07:16:11.426Z,18.70
2023-03-24T07:18:38.856Z,18.80
2023-03-24T07:21:05.926Z,18.80
2023-03-24T07:23:33.144Z,18.80
2023-03-24T07:26:00.566Z,18.80
2023-03-24T07:28:27.563Z,18.90
2023-03-24T07:30:55.445Z,18.80
2023-03-24T07:33:27.209Z,18.90
2023-03-24T07:35:56.256Z,18.90
2023-03-24T07:38:24.105Z,18.90
2023-03-24T07:40:50.967Z,18.90
2023-03-24T07:43:18.020Z,18.90
2023-03-24T07:45:46.481Z,18.90
2023-03-24T07:48:13.694Z,18.90
2023-03-24T07:50:40.599Z,18.90
2023-03-24T07:53:09.741Z,19.00
2023-03-24T07:55:39.359Z,18.90
2023-03-24T07:58:06.639Z,18.90
2023-03-24T08:00:33.803Z,19.00
2023-03-24T08:03:01.003Z,19.00
2023-03-24T08:05:29.756Z,19.00
2023-03-24T08:07:58.128Z,19.00
2023-03-24T08:10:27.608Z,19.00
2023-03-24T08:12:55.420Z,19.00
2023-03-24T08:15:23.137Z,19.00
2023-03-24T08:17:51.702Z,19.00
2023-03-24T08:20:21.193Z,19.00
2023-03-24T08:22:49.803Z,18.90
2023-03-24T08:25:18.941Z,18.90
2023-03-24T08:27:47.286Z,18.90
2023-03-24T08:30:17.426Z,18.80
2023-03-24T08:32:50.064Z,18.70
2023-03-24T08:35:20.225Z,18.60
2023-03-24T08:37:47.207Z,18.60
2023-03-24T08:40:19.232Z,18.60
2023-03-24T08:42:55.149Z,18.50
2023-03-24T08:45:24.203Z,18.50
2023-03-24T08:47:52.536Z,18.40
2023-03-24T08:50:21.899Z,18.40
2023-03-24T08:52:48.937Z,18.40
2023-03-24T08:55:20.652Z,18.30
2023-03-24T08:57:48.888Z,18.30
2023-03-24T09:00:18.578Z,18.30
2023-03-24T09:02:54.006Z,18.30
2023-03-24T09:05:29.385Z,18.30
2023-03-24T09:08:03.941Z,18.30
2023-03-24T09:10:30.834Z,18.30
2023-03-24T09:12:57.630Z,18.30
2023-03-24T09:15:24.485Z,18.30
2023-03-24T09:17:51.478Z,18.40
2023-03-24T09:20:18.609Z,18.40
2023-03-24T09:22:47.019Z,18.40
2023-03-24T09:25:17.962Z,18.40
2023-03-24T09:27:45.466Z,18.40
2023-03-24T09:30:14.939Z,18.40
2023-03-24T09:32:41.829Z,18.50
2023-03-24T09:35:09.019Z,18.50
2023-03-24T09:37:38.811Z,18.50
2023-03-24T09:40:10.149Z,18.50
2023-03-24T09:42:40.805Z,18.50
2023-03-24T09:45:16.715Z,18.60
2023-03-24T09:47:45.897Z,18.60
2023-03-24T09:50:23.070Z,18.70
2023-03-24T09:52:54.634Z,18.80
2023-03-24T09:55:27.861Z,18.90
2023-03-24T09:58:01.403Z,19.10
2023-03-24T10:00:32.611Z,19.20
2023-03-24T10:03:02.604Z,19.40
2023-03-24T10:05:42.916Z,19.50
2023-03-24T10:08:21.558Z,19.70
2023-03-24T10:11:14.549Z,19.80
2023-03-24T10:14:12.820Z,19.90
2023-03-24T10:16:54.321Z,20.00
2023-03-24T10:19:39.836Z,20.10
2023-03-24T10:22:32.692Z,20.00
2023-03-24T10:25:11.654Z,20.00
2023-03-24T10:27:53.761Z,19.90
2023-03-24T10:30:28.037Z,19.90
2023-03-24T10:32:54.979Z,19.80
2023-03-24T10:35:27.854Z,19.80
2023-03-24T10:37:59.581Z,19.70
2023-03-24T10:40:33.426Z,19.70
2023-03-24T10:43:06.839Z,19.60
2023-03-24T10:45:39.754Z,19.60
2023-03-24T10:48:07.564Z,19.60
2023-03-24T10:50:35.969Z,19.60
2023-03-24T10:53:10.062Z,19.60
2023-03-24T10:55:39.198Z,19.60
2023-03-24T10:58:27.628Z,19.60
2023-03-24T11:00:55.307Z,19.60
2023-03-24T11:03:29.816Z,19.60
2023-03-24T11:06:02.432Z,19.70
2023-03-24T11:08:38.642Z,19.70
2023-03-24T11:11:24.188Z,19.70
2023-03-24T11:13:59.246Z,19.70
2023-03-24T11:16:43.135Z,19.70
2023-03-24T11:19:24.284Z,19.70
2023-03-24T11:21:57.001Z,19.70
2023-03-24T11:24:24.232Z,19.70
2023-03-24T11:27:01.678Z,19.70
2023-03-24T11:29:31.841Z,19.80
2023-03-24T11:32:01.719Z,19.80
2023-03-24T11:34:34.393Z,19.80
2023-03-24T11:37:22.970Z,19.80
2023-03-24T11:40:14.567Z,19.80
2023-03-24T11:42:46.260Z,19.80
2023-03-24T11:45:41.373Z,19.80
2023-03-24T11:48:24.776Z,19.80
2023-03-24T11:50:52.759Z,19.80
2023-03-24T11:53:23.709Z,19.80
2023-03-24T11:56:03.308Z,19.80
2023-03-24T11:58:46.080Z,19.80
2023-03-24T12:01:21.491Z,19.80
2023-03-24T12:04:39.477Z,19.80
2023-03-24T12:07:30.252Z,19.80
2023-03-24T12:10:06.260Z,19.80
2023-03-24T12:13:04.621Z,19.70
2023-03-24T12:16:00.308Z,19.70
2023-03-24T12:18:48.550Z,19.70
2023-03-24T12:21:47.872Z,19.60
2023-03-24T12:24:50.342Z,19.60
2023-03-24T12:27:43.015Z,19.60
2023-03-24T12:30:25.738Z,19.60
2023-03-24T12:32:52.649Z,19.60
2023-03-24T12:35:43.705Z,19.50
2023-03-24T12:39:04.624Z,19.50
2023-03-24T12:41:49.116Z,19.50
2023-03-24T12:44:16.449Z,19.50
2023-03-24T12:47:19.670Z,19.50
2023-03-24T12:49:46.541Z,19.60
2023-03-24T12:52:42.280Z,19.60
2023-03-24T12:55:19.724Z,19.60
2023-03-24T12:58:18.618Z,19.60
2023-03-24T13:01:10.129Z,19.60
2023-03-24T13:04:01.224Z,19.60
2023-03-24T13:06:33.578Z,19.60
2023-03-24T13:09:13.169Z,19.60
2023-03-24T13:12:21.064Z,19.60
2023-03-24T13:14:59.679Z,19.60
2023-03-24T13:17:32.872Z,19.60
2023-03-24T13:20:01.897Z,19.60
2023-03-24T13:22:31.129Z,19.60
2023-03-24T13:24:58.571Z,19.70
2023-03-24T13:27:32.840Z,19.70
2023-03-24T13:30:02.408Z,19.70
2023-03-24T13:32:35.407Z,19.70
2023-03-24T13:35:51.498Z,19.70
2023-03-24T13:38:31.083Z,19.70
2023-03-24T13:40:59.033Z,19.70
2023-03-24T13:43:30.667Z,19.70
2023-03-24T13:46:07.263Z,19.70
2023-03-24T13:48:43.661Z,19.70
2023-03-24T13:51:17.896Z,19.80
2023-03-24T13:54:39.558Z,19.80
2023-03-24T13:57:14.080Z,19.70
2023-03-24T13:59:57.049Z,19.70
2023-03-24T14:03:09.667Z,19.60
2023-03-24T14:05:55.188Z,19.60
2023-03-24T14:08:40.857Z,19.60
2023-03-24T14:11:41.550Z,19.50
2023-03-24T14:14:18.804Z,19.50
2023-03-24T14:17:04.357Z,19.50
2023-03-24T14:19:41.844Z,19.50
2023-03-24T14:22:33.262Z,19.40
2023-03-24T14:25:21.790Z,19.40
2023-03-24T14:27:51.320Z,19.50
2023-03-24T14:30:33.371Z,19.50
2023-03-24T14:33:02.621Z,19.40
2023-03-24T14:35:46.654Z,19.40
2023-03-24T14:38:17.596Z,19.40
2023-03-24T14:40:50.899Z,19.40
2023-03-24T14:43:17.678Z,19.40
2023-03-24T14:46:33.554Z,19.40
2023-03-24T14:49:25.961Z,19.40
2023-03-24T14:52:31.979Z,19.40
2023-03-24T14:55:05.937Z,19.40
2023-03-24T14:57:40.584Z,19.40
2023-03-24T15:00:21.486Z,19.40
2023-03-24T15:02:55.697Z,19.40
2023-03-24T15:05:31.046Z,19.40
2023-03-24T15:08:18.399Z,19.50
2023-03-24T15:10:52.499Z,19.60
2023-03-24T15:13:34.020Z,19.60
2023-03-24T15:16:06.621Z,19.80
2023-03-24T15:18:34.452Z,19.90
2023-03-24T15:21:01.473Z,20.00
2023-03-24T15:23:28.477Z,20.10
2023-03-24T15:25:56.265Z,20.30
2023-03-24T15:28:28.833Z,20.40
2023-03-24T15:30:59.107Z,20.50
2023-03-24T15:33:26.149Z,20.60
2023-03-24T15:35:58.253Z,20.70
2023-03-24T15:38:33.060Z,20.80
2023-03-24T15:41:11.198Z,20.90
2023-03-24T15:43:46.672Z,21.00
2023-03-24T15:46:22.675Z,21.10
2023-03-24T15:48:50.406Z,21.20
2023-03-24T15:51:17.279Z,21.20
2023-03-24T15:53:59.026Z,21.30
2023-03-24T15:56:28.221Z,21.40
2023-03-24T15:58:59.227Z,21.50
2023-03-24T16:01:31.456Z,21.50
2023-03-24T16:04:01.673Z,21.60
2023-03-24T16:06:35.291Z,21.70
2023-03-24T16:09:08.734Z,21.70
2023-03-24T16:11:35.603Z,21.70
2023-03-24T16:14:14.208Z,21.80
2023-03-24T16:16:44.149Z,21.80
2023-03-24T16:19:11.146Z,21.80
2023-03-24T16:21:37.887Z,21.80
2023-03-24T16:24:04.838Z,21.80
2023-03-24T16:26:32.920Z,21.80
2023-03-24T16:29:20.559Z,21.70
2023-03-24T16:31:49.647Z,21.70
2023-03-24T16:34:21.193Z,21.70
2023-03-24T16:36:49.984Z,21.70
2023-03-24T16:39:19.595Z,21.60
2023-03-24T16:41:46.975Z,21.50
2023-03-24T16:44:14.097Z,21.40
2023-03-24T16:46:41.836Z,21.30
2023-03-24T16:49:13.438Z,21.20
2023-03-24T16:51:40.760Z,21.20
2023-03-24T16:54:09.034Z,21.20
2023-03-24T16:56:36.999Z,21.10
2023-03-24T16:59:05.007Z,21.20
2023-03-24T17:01:37.173Z,21.20
2023-03-24T17:04:09.531Z,21.30
2023-03-24T17:06:38.542Z,21.30
2023-03-24T17:09:06.131Z,21.40
2023-03-24T17:11:36.195Z,21.40
2023-03-24T17:14:08.831Z,21.40
2023-03-24T17:16:46.175Z,21.50
2023-03-24T17:19:15.359Z,21.50
2023-03-24T17:21:47.361Z,21.50
2023-03-24T17:24:14.723Z,21.50
2023-03-24T17:26:42.433Z,21.50
2023-03-24T17:29:13.250Z,21.50
2023-03-24T17:31:40.506Z,21.60
2023-03-24T17:34:21.267Z,21.60
2023-03-24T17:36:50.701Z,21.60
2023-03-24T17:39:18.639Z,21.70
2023-03-24T17:41:45.650Z,21.70
2023-03-24T17:44:13.044Z,21.70
2023-03-24T17:46:39.890Z,21.70
2023-03-24T17:49:07.038Z,21.70
2023-03-24T17:51:33.858Z,21.70
2023-03-24T17:54:01.447Z,21.60
2023-03-24T17:56:28.495Z,21.60
2023-03-24T17:58:58.641Z,21.60
2023-03-24T18:01:29.469Z,21.50
2023-03-24T18:03:57.602Z,21.50
2023-03-24T18:06:24.553Z,21.40
2023-03-24T18:08:51.653Z,21.40
2023-03-24T18:11:18.445Z,21.40
2023-03-24T18:13:45.632Z,21.40
2023-03-24T18:16:20.732Z,21.40
2023-03-24T18:18:50.318Z,21.40
2023-03-24T18:21:17.696Z,21.50
2023-03-24T18:23:46.217Z,21.50
2023-03-24T18:26:13.064Z,21.50
2023-03-24T18:28:39.828Z,21.60
2023-03-24T18:31:10.480Z,21.60
2023-03-24T18:33:37.320Z,21.70
2023-03-24T18:36:05.549Z,21.70
2023-03-24T18:38:36.100Z,21.80
2023-03-24T18:41:07.774Z,21.80
2023-03-24T18:43:37.565Z,21.80
2023-03-24T18:46:05.571Z,21.80
2023-03-24T18:48:32.535Z,21.80
2023-03-24T18:50:59.329Z,21.80
2023-03-24T18:53:26.190Z,21.90
2023-03-24T18:56:01.829Z,21.90
2023-03-24T18:58:29.025Z,22.00
2023-03-24T19:01:03.495Z,22.00
2023-03-24T19:03:30.379Z,22.10
2023-03-24T19:06:01.453Z,22.10
2023-03-24T19:08:28.792Z,22.20
2023-03-24T19:10:58.275Z,22.20
2023-03-24T19:13:25.533Z,22.20
2023-03-24T19:15:55.590Z,22.20
2023-03-24T19:18:23.765Z,22.10
2023-03-24T19:20:55.826Z,22.10
2023-03-24T19:23:26.821Z,22.10
2023-03-24T19:25:55.058Z,22.00
2023-03-24T19:28:23.439Z,21.90
2023-03-24T19:30:50.765Z,21.80
2023-03-24T19:33:17.543Z,21.80
2023-03-24T19:35:47.279Z,21.70
2023-03-24T19:38:14.682Z,21.70
2023-03-24T19:40:44.995Z,21.70
2023-03-24T19:43:12.047Z,21.70
2023-03-24T19:45:42.774Z,21.70
2023-03-24T19:48:10.833Z,21.70
2023-03-24T19:50:37.749Z,21.70
2023-03-24T19:53:05.457Z,21.70
2023-03-24T19:55:37.489Z,21.70
2023-03-24T19:58:06.685Z,21.70
2023-03-24T20:00:33.873Z,21.70
2023-03-24T20:03:01.623Z,21.70
2023-03-24T20:05:29.524Z,21.60
2023-03-24T20:07:59.747Z,21.60
2023-03-24T20:10:27.904Z,21.50
2023-03-24T20:12:55.587Z,21.50
2023-03-24T20:15:22.763Z,21.40
2023-03-24T20:17:49.909Z,21.40
2023-03-24T20:20:18.151Z,21.30
2023-03-24T20:22:46.284Z,21.30
2023-03-24T20:25:16.046Z,21.30
2023-03-24T20:27:45.396Z,21.20
2023-03-24T20:30:14.960Z,21.20
2023-03-24T20:32:43.169Z,21.20
2023-03-24T20:35:10.548Z,21.20
2023-03-24T20:37:37.359Z,21.10
2023-03-24T20:40:09.161Z,21.20
2023-03-24T20:42:36.813Z,21.20
2023-03-24T20:45:04.720Z,21.10
2023-03-24T20:47:32.168Z,21.10
2023-03-24T20:49:59.069Z,21.10
2023-03-24T20:52:27.158Z,21.10
2023-03-24T20:54:54.362Z,21.10
2023-03-24T20:57:22.262Z,21.10
2023-03-24T20:59:49.297Z,21.00
2023-03-24T21:02:16.527Z,21.00
2023-03-24T21:04:43.606Z,21.00
2023-03-24T21:07:11.126Z,20.90
2023-03-24T21:09:38.007Z,20.90
2023-03-24T21:12:06.529Z,20.80
2023-03-24T21:14:34.054Z,20.80
2023-03-24T21:17:01.829Z,20.80
2023-03-24T21:19:30.766Z,20.70
2023-03-24T21:21:57.873Z,20.70
2023-03-24T21:24:24.720Z,20.70
2023-03-24T21:26:53.860Z,20.70
2023-03-24T21:29:22.436Z,20.60
2023-03-24T21:31:49.855Z,20.60
2023-03-24T21:34:17.506Z,20.60
2023-03-24T21:36:46.215Z,20.60
2023-03-24T21:39:13.045Z,20.60
2023-03-24T21:41:39.905Z,20.60
2023-03-24T21:44:09.436Z,20.60
2023-03-24T21:46:37.061Z,20.60
2023-03-24T21:49:05.039Z,20.60
2023-03-24T21:51:34.185Z,20.60
2023-03-24T21:54:03.397Z,20.60
2023-03-24T21:56:32.439Z,20.60
2023-03-24T21:58:59.497Z,20.60
2023-03-24T22:01:26.453Z,20.50
2023-03-24T22:03:58.808Z,20.50
2023-03-24T22:06:29.062Z,20.40
2023-03-24T22:08:58.345Z,20.40
2023-03-24T22:11:26.379Z,20.40
2023-03-24T22:13:53.795Z,20.30
2023-03-24T22:16:21.005Z,20.30
2023-03-24T22:18:47.942Z,20.30
2023-03-24T22:21:15.534Z,20.30
2023-03-24T22:23:43.137Z,20.30
2023-03-24T22:26:16.667Z,20.20
2023-03-24T22:28:43.791Z,20.30
2023-03-24T22:31:16.249Z,20.30
2023-03-24T22:33:44.376Z,20.30
2023-03-24T22:36:11.959Z,20.30
2023-03-24T22:38:38.849Z,20.30
2023-03-24T22:41:07.812Z,20.30
2023-03-24T22:43:35.960Z,20.30
2023-03-24T22:46:03.572Z,20.30
2023-03-24T22:48:31.237Z,20.30
2023-03-24T22:50:58.129Z,20.30
2023-03-24T22:53:25.116Z,20.30
2023-03-24T22:55:52.768Z,20.30
2023-03-24T22:58:20.357Z,20.30
2023-03-24T23:00:48.812Z,20.30
2023-03-24T23:03:16.032Z,20.20
2023-03-24T23:05:46.390Z,20.20
2023-03-24T23:08:15.467Z,20.20
2023-03-24T23:10:47.242Z,20.20
2023-03-24T23:13:16.991Z,20.20
2023-03-24T23:15:44.442Z,20.10
2023-03-24T23:18:11.892Z,20.20
2023-03-24T23:20:39.063Z,20.20
2023-03-24T23:23:06.720Z,20.20
2023-03-24T23:25:38.647Z,20.20
2023-03-24T23:28:05.469Z,20.20
2023-03-24T23:30:32.325Z,20.20
2023-03-24T23:32:59.236Z,20.20
2023-03-24T23:35:26.538Z,20.20
2023-03-24T23:37:53.370Z,20.10
2023-03-24T23:40:20.277Z,20.10
2023-03-24T23:42:48.276Z,20.10
2023-03-24T23:45:20.204Z,20.10
2023-03-24T23:47:50.386Z,20.10
2023-03-24T23:50:18.606Z,20.10
2023-03-24T23:52:45.687Z,20.00
2023-03-24T23:55:17.698Z,20.00
2023-03-24T23:57:45.489Z,20.00
